createdAt,value
2017-12-16T00:00:48.871Z,988.95
2017-12-16T00:01:48.788Z,988.94
2017-12-16T00:02:48.714Z,988.97
2017-12-16T00:03:49.007Z,989.03
2017-12-16T00:04:48.528Z,989.02
2017-12-16T00:05:48.442Z,989.06
2017-12-16T00:06:48.355Z,989.04
2017-12-16T00:07:48.264Z,989.10
2017-12-16T00:08:48.182Z,989.08
2017-12-16T00:09:48.098Z,989.08
2017-12-16T00:10:48.013Z,989.10
2017-12-16T00:11:47.918Z,989.15
2017-12-16T00:12:47.829Z,989.11
2017-12-16T00:13:47.749Z,989.18
2017-12-16T00:14:47.654Z,989.16
2017-12-16T00:15:47.577Z,989.18
2017-12-16T00:16:47.484Z,989.16
2017-12-16T00:17:47.396Z,989.19
2017-12-16T00:18:47.301Z,989.16
2017-12-16T00:19:47.217Z,989.22
2017-12-16T00:20:47.143Z,989.21
2017-12-16T00:21:47.054Z,989.22
2017-12-16T00:22:46.957Z,989.24
2017-12-16T00:23:46.884Z,989.29
2017-12-16T00:24:46.790Z,989.25
2017-12-16T00:25:46.703Z,989.30
2017-12-16T00:26:46.607Z,989.32
2017-12-16T00:27:46.523Z,989.33
2017-12-16T00:28:46.434Z,989.34
2017-12-16T00:29:46.350Z,989.36
2017-12-16T00:30:46.258Z,989.31
2017-12-16T00:31:46.178Z,989.36
2017-12-16T00:32:46.088Z,989.38
2017-12-16T00:33:46.001Z,989.36
2017-12-16T00:34:45.940Z,989.39
2017-12-16T00:35:45.823Z,989.44
2017-12-16T00:36:45.738Z,989.42
2017-12-16T00:37:45.653Z,989.40
2017-12-16T00:38:45.570Z,989.38
2017-12-16T00:39:45.479Z,989.39
2017-12-16T00:40:45.391Z,989.42
2017-12-16T00:41:45.305Z,989.40
2017-12-16T00:42:45.215Z,989.41
2017-12-16T00:43:45.131Z,989.42
2017-12-16T00:44:45.045Z,989.43
2017-12-16T00:45:44.959Z,989.48
2017-12-16T00:46:44.868Z,989.42
2017-12-16T00:47:44.794Z,989.42
2017-12-16T00:48:44.704Z,989.45
2017-12-16T00:49:44.606Z,989.45
2017-12-16T00:50:44.547Z,989.50
2017-12-16T00:51:44.435Z,989.48
2017-12-16T00:52:44.348Z,989.52
2017-12-16T00:53:44.271Z,989.51
2017-12-16T00:54:44.173Z,989.51
2017-12-16T00:55:44.093Z,989.50
2017-12-16T00:56:43.998Z,989.48
2017-12-16T00:57:43.911Z,989.46
2017-12-16T00:58:43.828Z,989.47
2017-12-16T00:59:43.736Z,989.51
2017-12-16T01:00:43.655Z,989.47
2017-12-16T01:01:43.569Z,989.50
2017-12-16T01:02:43.586Z,989.51
2017-12-16T01:03:43.397Z,989.50
2017-12-16T01:04:43.302Z,989.52
2017-12-16T01:05:43.247Z,989.54
2017-12-16T01:06:43.138Z,989.57
2017-12-16T01:07:43.045Z,989.58
2017-12-16T01:08:42.946Z,989.59
2017-12-16T01:09:42.869Z,989.59
2017-12-16T01:10:42.778Z,989.58
2017-12-16T01:11:42.711Z,989.66
2017-12-16T01:12:42.616Z,989.68
2017-12-16T01:13:42.518Z,989.67
2017-12-16T01:14:42.422Z,989.65
2017-12-16T01:15:42.339Z,989.66
2017-12-16T01:16:42.250Z,989.64
2017-12-16T01:17:42.168Z,989.67
2017-12-16T01:18:42.079Z,989.71
2017-12-16T01:19:42.001Z,989.71
2017-12-16T01:20:41.926Z,989.72
2017-12-16T01:21:41.814Z,989.75
2017-12-16T01:22:41.726Z,989.74
2017-12-16T01:23:41.637Z,989.74
2017-12-16T01:24:41.551Z,989.72
2017-12-16T01:25:41.469Z,989.70
2017-12-16T01:26:41.378Z,989.74
2017-12-16T01:27:41.290Z,989.71
2017-12-16T01:28:41.203Z,989.77
2017-12-16T01:29:41.116Z,989.76
2017-12-16T01:30:41.043Z,989.76
2017-12-16T01:31:40.947Z,989.79
2017-12-16T01:32:40.855Z,989.80
2017-12-16T01:33:40.769Z,989.82
2017-12-16T01:34:40.687Z,989.81
2017-12-16T01:35:40.593Z,989.84
2017-12-16T01:36:40.514Z,989.84
2017-12-16T01:37:40.422Z,989.89
2017-12-16T01:38:40.332Z,989.86
2017-12-16T01:39:40.253Z,989.87
2017-12-16T01:40:40.156Z,989.94
2017-12-16T01:41:40.078Z,989.94
2017-12-16T01:42:39.995Z,989.98
2017-12-16T01:43:39.902Z,990.00
2017-12-16T01:44:39.819Z,990.00
2017-12-16T01:45:39.724Z,990.04
2017-12-16T01:46:39.637Z,990.03
2017-12-16T01:47:39.548Z,990.04
2017-12-16T01:48:39.463Z,990.07
2017-12-16T01:49:39.381Z,990.05
2017-12-16T01:50:39.300Z,990.06
2017-12-16T01:51:39.210Z,990.08
2017-12-16T01:52:39.133Z,990.08
2017-12-16T01:53:39.049Z,990.10
2017-12-16T01:54:38.941Z,990.12
2017-12-16T01:55:38.856Z,990.14
2017-12-16T01:56:38.769Z,990.15
2017-12-16T01:57:38.679Z,990.19
2017-12-16T01:58:38.592Z,990.17
2017-12-16T01:59:38.518Z,990.19
2017-12-16T02:00:38.422Z,990.21
2017-12-16T02:01:38.334Z,990.26
2017-12-16T02:02:38.305Z,990.26
2017-12-16T02:03:38.167Z,990.25
2017-12-16T02:04:38.074Z,990.26
2017-12-16T02:05:37.992Z,990.28
2017-12-16T02:06:37.892Z,990.25
2017-12-16T02:07:37.817Z,990.25
2017-12-16T02:08:37.724Z,990.28
2017-12-16T02:09:37.639Z,990.23
2017-12-16T02:10:37.548Z,990.29
2017-12-16T02:11:37.467Z,990.30
2017-12-16T02:12:37.381Z,990.29
2017-12-16T02:13:37.288Z,990.33
2017-12-16T02:14:37.201Z,990.37
2017-12-16T02:15:37.137Z,990.34
2017-12-16T02:16:37.033Z,990.36
2017-12-16T02:17:36.942Z,990.36
2017-12-16T02:18:36.886Z,990.39
2017-12-16T02:19:36.770Z,990.38
2017-12-16T02:20:36.689Z,990.37
2017-12-16T02:21:36.601Z,990.38
2017-12-16T02:22:36.509Z,990.38
2017-12-16T02:23:36.423Z,990.39
2017-12-16T02:24:36.342Z,990.43
2017-12-16T02:25:36.249Z,990.43
2017-12-16T02:26:36.173Z,990.41
2017-12-16T02:27:36.077Z,990.43
2017-12-16T02:28:36.002Z,990.48
2017-12-16T02:29:35.910Z,990.50
2017-12-16T02:30:35.821Z,990.50
2017-12-16T02:31:36.450Z,990.51
2017-12-16T02:32:35.648Z,990.48
2017-12-16T02:33:35.553Z,990.51
2017-12-16T02:34:35.468Z,990.51
2017-12-16T02:35:35.391Z,990.55
2017-12-16T02:36:35.312Z,990.54
2017-12-16T02:37:35.246Z,990.55
2017-12-16T02:38:35.154Z,990.53
2017-12-16T02:39:35.060Z,990.53
2017-12-16T02:40:34.954Z,990.59
2017-12-16T02:41:34.869Z,990.59
2017-12-16T02:42:34.778Z,990.58
2017-12-16T02:43:34.694Z,990.60
2017-12-16T02:44:34.613Z,990.61
2017-12-16T02:45:34.520Z,990.58
2017-12-16T02:46:34.431Z,990.65
2017-12-16T02:47:34.351Z,990.67
2017-12-16T02:48:34.271Z,990.65
2017-12-16T02:49:34.185Z,990.65
2017-12-16T02:50:34.087Z,990.67
2017-12-16T02:51:33.993Z,990.69
2017-12-16T02:52:33.917Z,990.73
2017-12-16T02:53:33.830Z,990.72
2017-12-16T02:54:33.745Z,990.71
2017-12-16T02:55:33.654Z,990.74
2017-12-16T02:56:33.565Z,990.79
2017-12-16T02:57:33.475Z,990.80
2017-12-16T02:58:33.388Z,990.85
2017-12-16T02:59:33.312Z,990.88
2017-12-16T03:00:33.228Z,990.87
2017-12-16T03:01:33.143Z,990.89
2017-12-16T03:02:33.044Z,990.86
2017-12-16T03:03:32.958Z,990.91
2017-12-16T03:04:32.873Z,990.92
2017-12-16T03:05:32.780Z,990.91
2017-12-16T03:06:32.702Z,990.90
2017-12-16T03:07:32.605Z,990.92
2017-12-16T03:08:32.520Z,990.97
2017-12-16T03:09:32.430Z,991.01
2017-12-16T03:10:32.343Z,991.03
2017-12-16T03:11:32.263Z,991.03
2017-12-16T03:12:32.176Z,991.01
2017-12-16T03:13:32.086Z,991.05
2017-12-16T03:14:32.005Z,991.04
2017-12-16T03:15:31.906Z,991.04
2017-12-16T03:16:31.827Z,991.07
2017-12-16T03:17:31.740Z,991.08
2017-12-16T03:18:31.651Z,991.08
2017-12-16T03:19:31.565Z,991.08
2017-12-16T03:20:31.475Z,991.07
2017-12-16T03:21:31.401Z,991.11
2017-12-16T03:22:31.300Z,991.14
2017-12-16T03:23:31.222Z,991.18
2017-12-16T03:24:31.126Z,991.21
2017-12-16T03:25:31.040Z,991.23
2017-12-16T03:26:30.959Z,991.22
2017-12-16T03:27:30.868Z,991.25
2017-12-16T03:28:30.783Z,991.28
2017-12-16T03:29:30.698Z,991.29
2017-12-16T03:30:31.012Z,991.30
2017-12-16T03:31:30.519Z,991.30
2017-12-16T03:32:30.438Z,991.38
2017-12-16T03:33:30.348Z,991.38
2017-12-16T03:34:30.274Z,991.36
2017-12-16T03:35:30.175Z,991.38
2017-12-16T03:36:30.085Z,991.35
2017-12-16T03:37:30.002Z,991.37
2017-12-16T03:38:29.925Z,991.40
2017-12-16T03:39:29.834Z,991.43
2017-12-16T03:40:29.741Z,991.45
2017-12-16T03:41:29.665Z,991.42
2017-12-16T03:42:29.572Z,991.44
2017-12-16T03:43:29.482Z,991.45
2017-12-16T03:44:29.400Z,991.48
2017-12-16T03:45:29.306Z,991.46
2017-12-16T03:46:29.221Z,991.53
2017-12-16T03:47:29.127Z,991.51
2017-12-16T03:48:29.042Z,991.54
2017-12-16T03:49:28.950Z,991.59
2017-12-16T03:50:28.870Z,991.55
2017-12-16T03:51:28.785Z,991.59
2017-12-16T03:52:28.701Z,991.63
2017-12-16T03:53:28.612Z,991.60
2017-12-16T03:54:28.541Z,991.63
2017-12-16T03:55:28.442Z,991.66
2017-12-16T03:56:28.358Z,991.63
2017-12-16T03:57:28.274Z,991.65
2017-12-16T03:58:28.175Z,991.64
2017-12-16T03:59:28.080Z,991.66
2017-12-16T04:00:27.999Z,991.74
2017-12-16T04:01:27.929Z,991.72
2017-12-16T04:02:27.826Z,991.76
2017-12-16T04:03:27.738Z,991.76
2017-12-16T04:04:27.658Z,991.77
2017-12-16T04:05:27.564Z,991.80
2017-12-16T04:06:27.477Z,991.78
2017-12-16T04:07:27.399Z,991.83
2017-12-16T04:08:27.314Z,991.84
2017-12-16T04:09:27.218Z,991.87
2017-12-16T04:10:27.137Z,991.86
2017-12-16T04:11:27.047Z,991.88
2017-12-16T04:12:26.962Z,991.89
2017-12-16T04:13:26.873Z,991.88
2017-12-16T04:14:26.789Z,991.90
2017-12-16T04:15:26.695Z,991.89
2017-12-16T04:16:26.618Z,991.91
2017-12-16T04:17:26.534Z,991.91
2017-12-16T04:18:26.461Z,991.93
2017-12-16T04:19:26.361Z,991.96
2017-12-16T04:20:26.272Z,991.95
2017-12-16T04:21:26.178Z,991.98
2017-12-16T04:22:26.096Z,991.98
2017-12-16T04:23:26.009Z,992.03
2017-12-16T04:24:25.922Z,992.00
2017-12-16T04:25:25.840Z,992.03
2017-12-16T04:26:25.748Z,992.02
2017-12-16T04:27:25.660Z,992.03
2017-12-16T04:28:25.573Z,992.02
2017-12-16T04:29:25.603Z,992.03
2017-12-16T04:30:25.397Z,992.04
2017-12-16T04:31:25.312Z,992.05
2017-12-16T04:32:25.227Z,992.06
2017-12-16T04:33:25.138Z,992.13
2017-12-16T04:34:25.057Z,992.12
2017-12-16T04:35:24.976Z,992.14
2017-12-16T04:36:24.888Z,992.20
2017-12-16T04:37:24.791Z,992.17
2017-12-16T04:38:24.734Z,992.18
2017-12-16T04:39:24.623Z,992.17
2017-12-16T04:40:24.548Z,992.21
2017-12-16T04:41:24.449Z,992.22
2017-12-16T04:42:24.355Z,992.27
2017-12-16T04:43:24.317Z,992.27
2017-12-16T04:44:24.189Z,992.28
2017-12-16T04:45:24.103Z,992.30
2017-12-16T04:46:24.019Z,992.30
2017-12-16T04:47:23.927Z,992.29
2017-12-16T04:48:23.847Z,992.32
2017-12-16T04:49:23.753Z,992.32
2017-12-16T04:50:23.669Z,992.34
2017-12-16T04:51:23.596Z,992.38
2017-12-16T04:52:23.497Z,992.40
2017-12-16T04:53:23.403Z,992.41
2017-12-16T04:54:23.319Z,992.44
2017-12-16T04:55:23.239Z,992.40
2017-12-16T04:56:23.141Z,992.38
2017-12-16T04:57:23.053Z,992.41
2017-12-16T04:58:22.992Z,992.50
2017-12-16T04:59:22.880Z,992.49
2017-12-16T05:00:22.799Z,992.50
2017-12-16T05:01:22.726Z,992.52
2017-12-16T05:02:22.635Z,992.52
2017-12-16T05:03:22.539Z,992.57
2017-12-16T05:04:22.452Z,992.59
2017-12-16T05:05:22.360Z,992.63
2017-12-16T05:06:22.284Z,992.69
2017-12-16T05:07:22.195Z,992.70
2017-12-16T05:08:22.106Z,992.72
2017-12-16T05:09:22.012Z,992.74
2017-12-16T05:10:21.927Z,992.77
2017-12-16T05:11:21.842Z,992.79
2017-12-16T05:12:21.760Z,992.77
2017-12-16T05:13:21.675Z,992.78
2017-12-16T05:14:21.583Z,992.80
2017-12-16T05:15:21.497Z,992.81
2017-12-16T05:16:21.412Z,992.83
2017-12-16T05:17:21.319Z,992.80
2017-12-16T05:18:21.239Z,992.86
2017-12-16T05:19:21.146Z,992.80
2017-12-16T05:20:21.067Z,992.83
2017-12-16T05:21:20.972Z,992.82
2017-12-16T05:22:20.880Z,992.86
2017-12-16T05:23:20.802Z,992.86
2017-12-16T05:24:20.715Z,992.90
2017-12-16T05:25:20.627Z,992.92
2017-12-16T05:26:20.553Z,992.93
2017-12-16T05:27:20.456Z,992.96
2017-12-16T05:28:20.369Z,992.98
2017-12-16T05:29:20.281Z,992.93
2017-12-16T05:30:20.199Z,992.96
2017-12-16T05:31:20.107Z,992.99
2017-12-16T05:32:20.020Z,993.02
2017-12-16T05:33:19.935Z,992.97
2017-12-16T05:34:19.839Z,993.05
2017-12-16T05:35:19.793Z,993.03
2017-12-16T05:36:19.683Z,993.04
2017-12-16T05:37:19.584Z,993.08
2017-12-16T05:38:19.499Z,993.07
2017-12-16T05:39:19.414Z,993.14
2017-12-16T05:40:19.327Z,993.15
2017-12-16T05:41:19.242Z,993.18
2017-12-16T05:42:19.153Z,993.22
2017-12-16T05:43:19.072Z,993.20
2017-12-16T05:44:18.980Z,993.24
2017-12-16T05:45:18.891Z,993.29
2017-12-16T05:46:18.805Z,993.27
2017-12-16T05:47:18.721Z,993.28
2017-12-16T05:48:18.647Z,993.28
2017-12-16T05:49:18.548Z,993.27
2017-12-16T05:50:18.454Z,993.30
2017-12-16T05:51:18.371Z,993.32
2017-12-16T05:52:18.289Z,993.35
2017-12-16T05:53:18.201Z,993.32
2017-12-16T05:54:18.108Z,993.33
2017-12-16T05:55:18.024Z,993.34
2017-12-16T05:56:17.944Z,993.37
2017-12-16T05:57:17.844Z,993.39
2017-12-16T05:58:18.483Z,993.44
2017-12-16T05:59:17.672Z,993.45
2017-12-16T06:00:17.603Z,993.42
2017-12-16T06:01:17.511Z,993.48
2017-12-16T06:02:17.423Z,993.48
2017-12-16T06:03:17.337Z,993.50
2017-12-16T06:04:17.245Z,993.54
2017-12-16T06:05:17.146Z,993.57
2017-12-16T06:06:17.061Z,993.58
2017-12-16T06:07:16.978Z,993.57
2017-12-16T06:08:16.896Z,993.64
2017-12-16T06:09:16.808Z,993.64
2017-12-16T06:10:16.713Z,993.68
2017-12-16T06:11:16.636Z,993.67
2017-12-16T06:12:16.553Z,993.69
2017-12-16T06:13:16.459Z,993.72
2017-12-16T06:14:16.368Z,993.74
2017-12-16T06:15:16.293Z,993.71
2017-12-16T06:16:16.194Z,993.73
2017-12-16T06:17:16.106Z,993.75
2017-12-16T06:18:16.031Z,993.76
2017-12-16T06:19:15.950Z,993.76
2017-12-16T06:20:15.851Z,993.78
2017-12-16T06:21:15.771Z,993.81
2017-12-16T06:22:15.671Z,993.87
2017-12-16T06:23:15.596Z,993.85
2017-12-16T06:24:15.510Z,993.86
2017-12-16T06:25:15.442Z,993.90
2017-12-16T06:26:15.330Z,993.86
2017-12-16T06:27:15.249Z,993.91
2017-12-16T06:28:15.167Z,993.92
2017-12-16T06:29:15.113Z,993.98
2017-12-16T06:30:14.977Z,994.03
2017-12-16T06:31:14.889Z,993.99
2017-12-16T06:32:14.809Z,994.02
2017-12-16T06:33:14.728Z,994.05
2017-12-16T06:34:14.628Z,994.05
2017-12-16T06:35:14.543Z,994.07
2017-12-16T06:36:14.468Z,994.09
2017-12-16T06:37:14.377Z,994.13
2017-12-16T06:38:14.281Z,994.10
2017-12-16T06:39:14.195Z,994.11
2017-12-16T06:40:14.113Z,994.15
2017-12-16T06:41:14.030Z,994.15
2017-12-16T06:42:13.935Z,994.18
2017-12-16T06:43:13.848Z,994.18
2017-12-16T06:44:13.760Z,994.19
2017-12-16T06:45:13.688Z,994.20
2017-12-16T06:46:13.587Z,994.26
2017-12-16T06:47:13.498Z,994.26
2017-12-16T06:48:13.413Z,994.29
2017-12-16T06:49:13.328Z,994.30
2017-12-16T06:50:13.251Z,994.36
2017-12-16T06:51:13.159Z,994.38
2017-12-16T06:52:13.064Z,994.38
2017-12-16T06:53:12.988Z,994.39
2017-12-16T06:54:12.890Z,994.46
2017-12-16T06:55:12.805Z,994.49
2017-12-16T06:56:12.716Z,994.51
2017-12-16T06:57:13.044Z,994.57
2017-12-16T06:58:12.548Z,994.57
2017-12-16T06:59:12.475Z,994.57
2017-12-16T07:00:12.370Z,994.58
2017-12-16T07:01:12.290Z,994.60
2017-12-16T07:02:12.204Z,994.64
2017-12-16T07:03:12.114Z,994.64
2017-12-16T07:04:12.030Z,994.69
2017-12-16T07:05:11.941Z,994.70
2017-12-16T07:06:11.850Z,994.74
2017-12-16T07:07:11.772Z,994.72
2017-12-16T07:08:11.678Z,994.75
2017-12-16T07:09:11.590Z,994.78
2017-12-16T07:10:11.515Z,994.82
2017-12-16T07:11:11.417Z,994.79
2017-12-16T07:12:11.329Z,994.83
2017-12-16T07:13:11.241Z,994.83
2017-12-16T07:14:11.159Z,994.87
2017-12-16T07:15:11.074Z,994.87
2017-12-16T07:16:10.977Z,994.92
2017-12-16T07:17:10.898Z,994.95
2017-12-16T07:18:10.808Z,994.96
2017-12-16T07:19:10.717Z,994.97
2017-12-16T07:20:10.640Z,995.02
2017-12-16T07:21:10.542Z,995.03
2017-12-16T07:22:10.467Z,995.05
2017-12-16T07:23:10.370Z,995.10
2017-12-16T07:24:10.287Z,995.13
2017-12-16T07:25:10.203Z,995.16
2017-12-16T07:26:10.108Z,995.16
2017-12-16T07:27:10.022Z,995.20
2017-12-16T07:28:09.934Z,995.24
2017-12-16T07:29:09.845Z,995.23
2017-12-16T07:30:09.771Z,995.27
2017-12-16T07:31:09.689Z,995.32
2017-12-16T07:32:09.593Z,995.31
2017-12-16T07:33:09.504Z,995.37
2017-12-16T07:34:09.478Z,995.34
2017-12-16T07:35:09.336Z,995.37
2017-12-16T07:36:09.239Z,995.38
2017-12-16T07:37:09.163Z,995.42
2017-12-16T07:38:09.083Z,995.46
2017-12-16T07:39:08.986Z,995.49
2017-12-16T07:40:08.900Z,995.49
2017-12-16T07:41:08.809Z,995.52
2017-12-16T07:42:08.739Z,995.54
2017-12-16T07:43:08.653Z,995.57
2017-12-16T07:44:08.545Z,995.49
2017-12-16T07:45:08.452Z,995.62
2017-12-16T07:46:08.371Z,995.62
2017-12-16T07:47:08.284Z,995.67
2017-12-16T07:48:08.212Z,995.70
2017-12-16T07:49:08.110Z,995.73
2017-12-16T07:50:08.046Z,995.74
2017-12-16T07:51:07.940Z,995.80
2017-12-16T07:52:07.848Z,995.80
2017-12-16T07:53:07.766Z,995.84
2017-12-16T07:54:07.676Z,995.85
2017-12-16T07:55:07.589Z,995.87
2017-12-16T07:56:07.620Z,995.91
2017-12-16T07:57:07.430Z,995.90
2017-12-16T07:58:07.326Z,995.90
2017-12-16T07:59:07.236Z,995.94
2017-12-16T08:00:07.152Z,995.91
2017-12-16T08:01:07.071Z,995.99
2017-12-16T08:02:06.978Z,995.97
2017-12-16T08:03:06.894Z,995.94
2017-12-16T08:04:06.810Z,995.99
2017-12-16T08:05:06.729Z,996.01
2017-12-16T08:06:06.631Z,996.03
2017-12-16T08:07:06.541Z,996.10
2017-12-16T08:08:06.470Z,996.10
2017-12-16T08:09:06.374Z,996.05
2017-12-16T08:10:06.282Z,996.10
2017-12-16T08:11:06.210Z,996.12
2017-12-16T08:12:06.112Z,996.14
2017-12-16T08:13:06.023Z,996.18
2017-12-16T08:14:05.945Z,996.22
2017-12-16T08:15:05.855Z,996.17
2017-12-16T08:16:05.760Z,996.19
2017-12-16T08:17:05.683Z,996.18
2017-12-16T08:18:05.592Z,996.22
2017-12-16T08:19:05.543Z,996.25
2017-12-16T08:20:05.418Z,996.27
2017-12-16T08:21:05.330Z,996.28
2017-12-16T08:22:05.255Z,996.28
2017-12-16T08:23:05.152Z,996.33
2017-12-16T08:24:05.065Z,996.33
2017-12-16T08:25:04.982Z,996.42
2017-12-16T08:26:04.891Z,996.40
2017-12-16T08:27:04.802Z,996.44
2017-12-16T08:28:04.724Z,996.42
2017-12-16T08:29:04.627Z,996.46
2017-12-16T08:30:04.556Z,996.50
2017-12-16T08:31:04.472Z,996.51
2017-12-16T08:32:04.373Z,996.53
2017-12-16T08:33:04.284Z,996.54
2017-12-16T08:34:04.210Z,996.56
2017-12-16T08:35:04.107Z,996.60
2017-12-16T08:36:04.021Z,996.62
2017-12-16T08:37:03.938Z,996.64
2017-12-16T08:38:03.851Z,996.70
2017-12-16T08:39:03.775Z,996.67
2017-12-16T08:40:03.676Z,996.70
2017-12-16T08:41:03.585Z,996.76
2017-12-16T08:42:03.501Z,996.74
2017-12-16T08:43:03.418Z,996.77
2017-12-16T08:44:03.330Z,996.79
2017-12-16T08:45:03.248Z,996.82
2017-12-16T08:46:03.198Z,996.83
2017-12-16T08:47:03.082Z,996.86
2017-12-16T08:48:03.028Z,996.87
2017-12-16T08:49:02.897Z,996.86
2017-12-16T08:50:02.817Z,996.86
2017-12-16T08:51:02.725Z,996.84
2017-12-16T08:52:02.639Z,996.88
2017-12-16T08:53:02.549Z,996.93
2017-12-16T08:54:02.462Z,996.96
2017-12-16T08:55:02.408Z,996.97
2017-12-16T08:56:02.353Z,997.06
2017-12-16T08:57:02.291Z,997.06
2017-12-16T08:58:02.110Z,997.13
2017-12-16T08:59:02.027Z,997.15
2017-12-16T09:00:01.940Z,997.16
2017-12-16T09:01:01.858Z,997.20
2017-12-16T09:02:01.773Z,997.23
2017-12-16T09:03:01.684Z,997.24
2017-12-16T09:04:01.599Z,997.27
2017-12-16T09:05:01.507Z,997.32
2017-12-16T09:06:01.433Z,997.32
2017-12-16T09:07:01.361Z,997.35
2017-12-16T09:08:01.248Z,997.38
2017-12-16T09:09:01.164Z,997.40
2017-12-16T09:10:01.076Z,997.45
2017-12-16T09:11:00.991Z,997.48
2017-12-16T09:12:00.904Z,997.51
2017-12-16T09:13:00.814Z,997.55
2017-12-16T09:14:00.727Z,997.58
2017-12-16T09:15:00.640Z,997.62
2017-12-16T09:16:00.558Z,997.63
2017-12-16T09:17:00.478Z,997.63
2017-12-16T09:18:00.391Z,997.67
2017-12-16T09:19:00.306Z,997.70
2017-12-16T09:20:00.218Z,997.71
2017-12-16T09:21:00.121Z,997.67
2017-12-16T09:22:00.034Z,997.72
2017-12-16T09:22:59.947Z,997.70
2017-12-16T09:23:59.884Z,997.76
2017-12-16T09:25:00.507Z,997.72
2017-12-16T09:25:59.703Z,997.74
2017-12-16T09:26:59.603Z,997.76
2017-12-16T09:27:59.516Z,997.73
2017-12-16T09:28:59.431Z,997.80
2017-12-16T09:29:59.340Z,997.80
2017-12-16T09:30:59.254Z,997.82
2017-12-16T09:31:59.168Z,997.78
2017-12-16T09:32:59.138Z,997.83
2017-12-16T09:33:59.002Z,997.85
2017-12-16T09:34:58.961Z,997.82
2017-12-16T09:35:58.874Z,997.85
2017-12-16T09:36:58.740Z,997.87
2017-12-16T09:37:58.655Z,997.90
2017-12-16T09:38:58.568Z,997.89
2017-12-16T09:39:58.484Z,997.95
2017-12-16T09:40:58.386Z,997.97
2017-12-16T09:41:58.301Z,997.98
2017-12-16T09:42:58.221Z,997.99
2017-12-16T09:43:58.126Z,998.02
2017-12-16T09:44:58.065Z,998.03
2017-12-16T09:45:57.958Z,998.06
2017-12-16T09:46:57.869Z,998.09
2017-12-16T09:47:57.781Z,998.11
2017-12-16T09:48:57.699Z,998.12
2017-12-16T09:49:57.603Z,998.11
2017-12-16T09:50:57.540Z,998.12
2017-12-16T09:51:57.435Z,998.15
2017-12-16T09:52:57.381Z,998.12
2017-12-16T09:53:57.252Z,998.15
2017-12-16T09:54:57.166Z,998.14
2017-12-16T09:55:57.086Z,998.14
2017-12-16T09:56:57.014Z,998.18
2017-12-16T09:57:56.915Z,998.15
2017-12-16T09:58:56.829Z,998.19
2017-12-16T09:59:56.736Z,998.18
2017-12-16T10:00:56.667Z,998.20
2017-12-16T10:01:56.600Z,998.20
2017-12-16T10:02:56.475Z,998.26
2017-12-16T10:03:56.385Z,998.25
2017-12-16T10:04:56.297Z,998.30
2017-12-16T10:05:56.215Z,998.34
2017-12-16T10:06:56.123Z,998.35
2017-12-16T10:07:56.045Z,998.31
2017-12-16T10:08:55.952Z,998.34
2017-12-16T10:09:55.866Z,998.38
2017-12-16T10:10:55.778Z,998.36
2017-12-16T10:11:55.692Z,998.40
2017-12-16T10:12:55.600Z,998.39
2017-12-16T10:13:55.519Z,998.40
2017-12-16T10:14:55.437Z,998.45
2017-12-16T10:15:55.347Z,998.43
2017-12-16T10:16:55.261Z,998.45
2017-12-16T10:17:55.164Z,998.43
2017-12-16T10:18:55.085Z,998.47
2017-12-16T10:19:55.005Z,998.48
2017-12-16T10:20:54.908Z,998.50
2017-12-16T10:21:54.816Z,998.52
2017-12-16T10:22:54.731Z,998.55
2017-12-16T10:23:55.064Z,998.57
2017-12-16T10:24:54.564Z,998.56
2017-12-16T10:25:54.473Z,998.59
2017-12-16T10:26:54.399Z,998.63
2017-12-16T10:27:54.306Z,998.60
2017-12-16T10:28:54.211Z,998.62
2017-12-16T10:29:54.121Z,998.60
2017-12-16T10:30:54.038Z,998.64
2017-12-16T10:31:53.957Z,998.65
2017-12-16T10:32:53.865Z,998.62
2017-12-16T10:33:53.773Z,998.66
2017-12-16T10:34:53.701Z,998.61
2017-12-16T10:35:53.615Z,998.64
2017-12-16T10:36:53.514Z,998.60
2017-12-16T10:37:53.448Z,998.62
2017-12-16T10:38:53.354Z,998.65
2017-12-16T10:39:53.257Z,998.63
2017-12-16T10:40:53.174Z,998.60
2017-12-16T10:41:53.096Z,998.68
2017-12-16T10:42:52.998Z,998.65
2017-12-16T10:43:52.909Z,998.62
2017-12-16T10:44:52.824Z,998.67
2017-12-16T10:45:52.749Z,998.68
2017-12-16T10:46:52.653Z,998.65
2017-12-16T10:47:52.571Z,998.69
2017-12-16T10:48:52.482Z,998.71
2017-12-16T10:49:52.393Z,998.70
2017-12-16T10:50:52.306Z,998.73
2017-12-16T10:51:52.218Z,998.76
2017-12-16T10:52:52.151Z,998.74
2017-12-16T10:53:52.077Z,998.75
2017-12-16T10:54:51.972Z,998.76
2017-12-16T10:55:51.872Z,998.74
2017-12-16T10:56:51.787Z,998.74
2017-12-16T10:57:51.702Z,998.74
2017-12-16T10:58:51.612Z,998.71
2017-12-16T10:59:51.545Z,998.73
2017-12-16T11:00:51.442Z,998.73
2017-12-16T11:01:51.353Z,998.74
2017-12-16T11:02:51.265Z,998.75
2017-12-16T11:03:51.184Z,998.81
2017-12-16T11:04:51.096Z,998.83
2017-12-16T11:05:51.009Z,998.88
2017-12-16T11:06:50.921Z,998.92
2017-12-16T11:07:50.853Z,998.92
2017-12-16T11:08:50.760Z,998.95
2017-12-16T11:09:50.658Z,999.03
2017-12-16T11:10:50.572Z,999.00
2017-12-16T11:11:50.511Z,999.07
2017-12-16T11:12:50.413Z,999.10
2017-12-16T11:13:50.316Z,999.13
2017-12-16T11:14:50.223Z,999.18
2017-12-16T11:15:50.165Z,999.17
2017-12-16T11:16:50.054Z,999.74
2017-12-16T11:17:49.967Z,999.60
2017-12-16T11:18:49.887Z,999.41
2017-12-16T11:19:49.802Z,999.47
2017-12-16T11:20:49.709Z,999.59
2017-12-16T11:21:49.627Z,999.65
2017-12-16T11:22:49.627Z,1001.85
2017-12-16T11:23:49.452Z,1001.52
2017-12-16T11:24:49.380Z,1000.69
2017-12-16T11:25:49.282Z,1002.31
2017-12-16T11:26:49.201Z,1002.64
2017-12-16T11:27:49.104Z,1000.75
2017-12-16T11:28:49.033Z,1000.32
2017-12-16T11:29:48.946Z,1000.02
2017-12-16T11:30:48.861Z,1000.60
2017-12-16T11:31:48.789Z,999.94
2017-12-16T11:32:48.710Z,999.68
2017-12-16T11:33:48.614Z,999.50
2017-12-16T11:34:48.545Z,999.37
2017-12-16T11:35:48.441Z,999.34
2017-12-16T11:36:48.351Z,999.36
2017-12-16T11:37:48.275Z,999.43
2017-12-16T11:38:48.188Z,999.50
2017-12-16T11:39:48.110Z,999.53
2017-12-16T11:40:48.020Z,999.60
2017-12-16T11:41:47.941Z,999.59
2017-12-16T11:42:47.855Z,999.70
2017-12-16T11:43:47.769Z,999.66
2017-12-16T11:44:47.680Z,999.56
2017-12-16T11:45:47.590Z,999.57
2017-12-16T11:46:47.513Z,999.55
2017-12-16T11:47:47.429Z,999.56
2017-12-16T11:48:47.356Z,999.51
2017-12-16T11:49:47.254Z,999.52
2017-12-16T11:50:47.171Z,999.51
2017-12-16T11:51:47.089Z,999.51
2017-12-16T11:52:47.911Z,999.53
2017-12-16T11:53:46.922Z,999.53
2017-12-16T11:54:46.835Z,999.54
2017-12-16T11:55:46.765Z,999.52
2017-12-16T11:56:46.657Z,999.47
2017-12-16T11:57:46.578Z,999.49
2017-12-16T11:58:46.496Z,999.46
2017-12-16T11:59:46.403Z,999.46
2017-12-16T12:00:46.311Z,999.45
2017-12-16T12:01:46.228Z,999.50
2017-12-16T12:02:46.153Z,999.55
2017-12-16T12:03:46.065Z,999.55
2017-12-16T12:04:45.992Z,999.54
2017-12-16T12:05:45.892Z,999.57
2017-12-16T12:06:45.807Z,999.54
2017-12-16T12:07:45.715Z,999.59
2017-12-16T12:08:45.638Z,999.58
2017-12-16T12:09:45.541Z,999.58
2017-12-16T12:10:45.462Z,999.58
2017-12-16T12:11:45.376Z,999.61
2017-12-16T12:12:45.297Z,999.57
2017-12-16T12:13:45.242Z,999.55
2017-12-16T12:14:45.114Z,999.60
2017-12-16T12:15:45.024Z,999.59
2017-12-16T12:16:44.949Z,999.64
2017-12-16T12:17:44.853Z,999.62
2017-12-16T12:18:44.778Z,999.61
2017-12-16T12:19:44.682Z,999.65
2017-12-16T12:20:44.591Z,999.65
2017-12-16T12:21:44.511Z,999.65
2017-12-16T12:22:44.420Z,999.70
2017-12-16T12:23:44.353Z,999.72
2017-12-16T12:24:44.279Z,999.72
2017-12-16T12:25:44.168Z,999.74
2017-12-16T12:26:44.069Z,999.70
2017-12-16T12:27:44.006Z,999.73